Latest Weather Observations for Essendon Airport

IDV60901

Issued at 2:41 pm EDT Sunday 16 December 2018 (issued every 10 minutes, with the page automatically refreshed every 10 minutes)

About weather observations | Map of Melbourne area stations | Latest observations for Melbourne area | Other Formats
Station Details ID: 086038 Name: ESSENDON AIRPORT Lat: -37.73 Lon: 144.91 Height: 78.4 m
Data from the previous 72 hours. | See also: Recent months at Essendon Airport
Date/Time
EDT
Temp
°C
App
Temp
°C
Dew
Point
°C
Rel
Hum
%
Delta-T
°C
Wind Press
QNH
hPa
Press
MSL
hPa
Rain since
9am
mm
Dir  Spd
km/h
Gust
km/h
Spd
kts
Gust
kts
16/02:30pm 21.2 17.6 12.9 59 4.8 NNW 24 35 13 19 1005.2 1005.0 0.2
16/02:00pm 21.9 18.6 14.0 61 4.6 NNW 24 33 13 18 1005.2 1005.0 0.2
16/01:30pm 22.5 19.1 13.8 58 5.1 NNW 24 35 13 19 1005.2 1005.0 0.2
16/01:00pm 20.7 16.2 13.9 65 4.0 N 30 41 16 22 1005.4 1005.2 0.2
16/12:30pm 21.8 17.8 15.2 66 3.9 N 30 41 16 22 1005.5 1005.3 0.2
16/12:00pm 21.0 17.5 14.4 66 3.9 N 26 35 14 19 1005.4 1005.2 0.2
16/11:30am 21.0 16.8 15.8 72 3.1 N 32 43 17 23 1005.4 1005.2 0.2
16/11:00am 20.1 18.1 14.9 72 3.1 N 19 26 10 14 1005.4 1005.2 0.2
16/10:30am 19.4 18.2 16.2 82 1.9 N 17 22 9 12 1005.6 1005.4 0.2
16/10:00am 17.9 17.2 16.4 91 0.9 N 15 20 8 11 1005.9 1005.7 0.2
16/09:30am 17.7 17.5 15.7 88 1.2 N 11 17 6 9 1006.0 1005.8 0.0
16/09:00am 17.4 16.4 14.7 84 1.6 N 13 22 7 12 1005.7 1005.5 1.8
16/08:30am 17.5 15.8 14.6 83 1.7 N 17 26 9 14 1005.4 1005.2 1.8
16/08:00am 17.4 15.7 14.7 84 1.6 N 17 26 9 14 1005.2 1005.0 1.8
16/07:30am 16.9 15.1 14.4 85 1.4 N 17 22 9 12 1004.9 1004.7 1.8
16/07:00am 16.5 15.4 14.3 87 1.3 N 13 19 7 10 1004.8 1004.6 1.8
16/06:30am 16.7 14.7 14.0 84 1.5 N 17 22 9 12 1004.3 1004.1 1.8
16/06:00am 16.0 15.9 13.8 87 1.2 N 7 13 4 7 1004.0 1003.8 1.8
16/05:30am 16.3 14.3 13.8 85 1.4 N 17 20 9 11 1003.5 1003.3 1.8
16/05:00am 16.2 14.2 13.9 86 1.3 N 17 20 9 11 1003.4 1003.2 1.8
16/04:30am 16.2 15.1 14.2 88 1.1 N 13 17 7 9 1003.3 1003.1 1.8
16/04:00am 15.7 16.1 14.7 94 0.6 ESE 6 9 3 5 1003.1 1002.9 1.8
16/03:30am 15.7 15.8 13.9 89 1.0 ESE 6 9 3 5 1003.1 1002.9 1.8
16/03:00am 16.4 14.9 13.1 81 1.9 N 13 19 7 10 1003.0 1002.8 1.8
16/02:30am 16.7 14.1 13.2 80 2.0 NE 19 24 10 13 1003.3 1003.1 1.8
16/02:00am 16.7 13.2 13.4 81 1.9 NE 24 35 13 19 1003.9 1003.7 1.8
16/01:30am 17.2 13.0 13.5 79 2.1 NNE 28 37 15 20 1004.3 1004.1 1.0
16/01:11am 18.1 14.4 14.0 77 2.4 NNE 26 57 14 31 1004.5 1004.3 0.4
16/01:00am 17.9 16.5 14.6 81 1.9 NNE 15 22 8 12 1004.5 1004.3 0.4
16/12:30am 17.8 17.8 15.1 84 1.6 NE 9 13 5 7 1004.4 1004.2 0.2
16/12:00am 18.2 17.3 14.9 81 1.9 NE 13 15 7 8 1004.9 1004.7 0.2
 
Date/Time
EDT
Temp
°C
App
Temp
°C
Dew
Point
°C
Rel
Hum
%
Delta-T
°C
Wind Press
QNH
hPa
Press
MSL
hPa
Rain since
9am
mm
Dir  Spd
km/h
Gust
km/h
Spd
kts
Gust
kts
15/11:30pm 18.4 17.9 13.7 74 2.7 NNE 9 15 5 8 1004.6 1004.4 0.2
15/11:00pm 19.7 18.1 13.9 69 3.4 N 15 17 8 9 1005.1 1004.9 0.2
15/10:30pm 19.3 19.5 14.8 75 2.6 ENE 7 11 4 6 1005.1 1004.9 0.0
15/10:00pm 19.8 19.6 14.6 72 3.0 N 9 13 5 7 1005.0 1004.8 0.0
15/09:30pm 19.8 19.3 15.0 74 2.8 NNE 11 15 6 8 1004.9 1004.7 0.0
15/09:00pm 19.4 19.0 14.2 72 3.0 NNE 9 11 5 6 1004.6 1004.4 0.0
15/08:30pm 21.0 19.3 12.4 58 4.9 NNE 13 17 7 9 1004.0 1003.8 0.0
15/08:00pm 21.8 20.4 13.4 59 4.9 N 13 20 7 11 1003.5 1003.3 0.0
15/07:30pm 21.9 20.1 13.3 58 5.0 NNE 15 22 8 12 1003.4 1003.2 0.0
15/07:00pm 21.6 20.5 14.3 63 4.3 NE 13 17 7 9 1003.4 1003.2 0.0
15/06:30pm 20.4 18.1 12.9 62 4.3 N 17 22 9 12 1003.4 1003.2 0.0
15/06:00pm 22.3 19.5 13.1 56 5.3 N 20 30 11 16 1003.6 1003.4 0.0
15/05:30pm 22.5 19.5 12.7 54 5.6 NNW 20 32 11 17 1003.4 1003.2 0.0
15/05:00pm 23.4 19.7 12.7 51 6.2 N 24 33 13 18 1003.2 1003.0 0.0
15/04:30pm 23.4 18.5 13.6 54 5.7 N 32 41 17 22 1003.5 1003.3 0.0
15/04:00pm 22.9 18.0 14.2 58 5.1 N 33 50 18 27 1003.4 1003.2 0.0
15/03:57pm 23.1 18.4 14.4 58 5.1 N 32 50 17 27 1003.3 1003.1 0.0
15/03:30pm 23.0 19.5 14.6 59 5.0 N 26 41 14 22 1003.3 1003.1 0.0
15/03:00pm 19.6 16.8 14.4 72 3.0 N 22 32 12 17 1003.9 1003.7 0.0
15/02:30pm 18.9 17.4 16.7 87 1.3 NNW 20 28 11 15 1004.6 1004.4 0.0
15/02:00pm 18.0 15.6 14.5 80 2.0 N 20 35 11 19 1005.3 1005.1 0.0
15/01:39pm 20.4 17.0 13.6 65 3.9 NNW 24 54 13 29 1004.5 1004.3 0.0
15/01:37pm 21.4 19.0 14.3 64 4.2 NNW 20 43 11 23 1004.5 1004.3 0.0
15/01:30pm 22.1 21.1 14.5 62 4.5 N 13 17 7 9 1004.6 1004.4 0.0
15/01:00pm 22.6 22.1 15.0 62 4.5 NNW 11 17 6 9 1003.8 1003.6 0.0
15/12:30pm 23.2 23.9 17.0 68 3.8 NW 9 13 5 7 1004.2 1004.0 0.0
15/12:00pm 22.2 21.3 15.8 67 3.9 NNW 15 19 8 10 1004.3 1004.1 0.0
15/11:30am 22.0 23.8 18.8 82 2.0 NW 7 13 4 7 1004.5 1004.3 0.0
15/11:00am 21.9 24.2 20.7 93 0.8 W 9 13 5 7 1004.9 1004.7 0.0
15/10:36am 20.2 21.8 19.2 94 0.6 WNW 9 15 5 8 1005.0 1004.8 0.0
15/10:30am 20.3 22.5 19.6 96 0.4 WNW 7 11 4 6 1005.1 1004.9 0.0
15/10:00am 19.6 20.2 19.4 99 0.1 WNW 15 20 8 11 1004.8 1004.6 0.0
15/09:30am 19.5 20.9 19.5 100 0.0 NNW 11 15 6 8 1004.9 1004.7 0.0
15/09:00am 19.3 20.6 19.3 100 0.0 N 11 17 6 9 1005.2 1005.0 10.2
15/08:30am 18.7 21.8 18.7 100 0.0 CALM 0 0 0 0 1005.1 1004.9 10.2
15/08:00am 18.6 20.5 18.6 100 0.0 NW 6 7 3 4 1004.9 1004.7 10.2
15/07:30am 18.0 20.1 18.0 100 0.0 NW 4 9 2 5 1004.5 1004.3 10.2
15/07:00am 17.4 20.0 17.4 100 0.0 CALM 0 0 0 0 1004.2 1004.0 10.0
15/06:30am 16.7 19.0 16.7 100 0.0 CALM 0 0 0 0 1004.3 1004.1 10.0
15/06:29am 16.6 18.8 16.6 100 0.0 CALM 0 0 0 0 1004.3 1004.1 10.0
15/06:00am 16.6 17.5 16.6 100 0.0 NW 7 9 4 5 1004.1 1003.9 10.0
15/05:53am 16.9 17.9 16.9 100 0.0 NW 7 9 4 5 1004.2 1004.0 10.0
15/05:30am 17.1 18.2 17.1 100 0.0 NW 7 11 4 6 1004.5 1004.3 10.0
15/05:00am 17.3 19.1 17.3 100 0.0 SSW 4 6 2 3 1004.6 1004.4 10.0
15/04:30am 17.4 18.2 17.4 100 0.0 SSW 9 11 5 6 1004.4 1004.2 10.0
15/04:00am 17.4 17.5 17.4 100 0.0 WSW 13 17 7 9 1003.9 1003.7 10.0
15/03:30am 17.6 18.9 17.6 100 0.0 NNW 7 13 4 7 1004.8 1004.6 9.8
15/03:00am 17.8 19.2 17.8 100 0.0 WNW 7 11 4 6 1004.6 1004.4 9.8
15/02:38am 17.8 20.1 17.8 100 0.0 WSW 2 7 1 4 1004.8 1004.6 9.8
15/02:30am 17.7 19.2 17.7 100 0.0 WSW 6 9 3 5 1004.8 1004.6 9.8
15/02:00am 17.6 18.9 17.6 100 0.0 WSW 7 9 4 5 1005.0 1004.8 9.8
15/01:30am 17.8 19.4 17.8 100 0.0 WNW 6 7 3 4 1005.4 1005.2 9.6
15/01:00am 17.5 18.4 17.5 100 0.0 NNW 9 13 5 7 1005.3 1005.1 9.6
15/12:30am 17.3 19.1 17.3 100 0.0 NNW 4 7 2 4 1005.5 1005.3 9.6
15/12:00am 17.5 18.8 17.5 100 0.0 NNW 7 9 4 5 1005.8 1005.6 9.6
 
Date/Time
EDT
Temp
°C
App
Temp
°C
Dew
Point
°C
Rel
Hum
%
Delta-T
°C
Wind Press
QNH
hPa
Press
MSL
hPa
Rain since
9am
mm
Dir  Spd
km/h
Gust
km/h
Spd
kts
Gust
kts
14/11:30pm 17.6 19.5 17.6 100 0.0 NNW 4 6 2 3 1005.7 1005.5 9.6
14/11:00pm 18.0 19.1 18.0 100 0.0 NNW 9 13 5 7 1006.2 1006.0 9.6
14/10:30pm 17.9 19.3 17.9 100 0.0 N 7 11 4 6 1006.3 1006.1 9.6
14/10:00pm 18.4 20.2 18.4 100 0.0 NNW 6 9 3 5 1005.7 1005.5 9.2
14/09:30pm 18.5 19.8 18.5 100 0.0 NNW 9 15 5 8 1005.3 1005.1 9.0
14/09:00pm 18.9 21.3 18.9 100 0.0 N 4 13 2 7 1005.5 1005.3 9.0
14/08:30pm 19.2 21.8 19.2 100 0.0 N 4 9 2 5 1004.8 1004.6 9.0
14/08:00pm 19.3 21.9 19.3 100 0.0 N 4 7 2 4 1004.7 1004.5 9.0
14/07:32pm 19.3 20.6 19.3 100 0.0 NNW 11 17 6 9 1004.5 1004.3 9.0
14/07:30pm 19.2 20.8 19.2 100 0.0 NNW 9 15 5 8 1004.3 1004.1 9.0
14/07:00pm 19.3 20.6 19.3 100 0.0 N 11 19 6 10 1003.9 1003.7 9.0
14/06:51pm 19.3 19.8 19.3 100 0.0 N 15 17 8 9 1003.6 1003.4 9.0
14/06:41pm 19.4 20.7 19.4 100 0.0 N 11 13 6 7 1003.6 1003.4 9.0
14/06:30pm 19.4 21.5 19.4 100 0.0 NE 7 11 4 6 1003.4 1003.2 9.0
14/06:24pm 19.4 21.1 19.4 100 0.0 NNE 9 17 5 9 1003.2 1003.0 9.0
14/06:20pm 19.6 21.0 19.6 100 0.0 N 11 17 6 9 1003.5 1003.3 8.6
14/06:00pm 19.4 21.5 19.4 100 0.0 WSW 7 11 4 6 1003.1 1002.9 6.0
14/05:30pm 19.2 20.8 19.2 100 0.0 WSW 9 11 5 6 1003.2 1003.0 6.0
14/05:00pm 19.2 20.1 19.2 100 0.0 SW 13 15 7 8 1003.2 1003.0 5.6
14/04:31pm 19.4 20.4 18.7 96 0.4 S 11 17 6 9 1003.4 1003.2 4.8
14/04:30pm 19.4 20.0 18.6 95 0.5 S 13 19 7 10 1003.4 1003.2 4.8
14/04:00pm 19.9 19.4 17.7 87 1.4 S 17 22 9 12 1003.5 1003.3 4.2
14/03:30pm 20.9 19.3 17.5 81 2.1 S 22 30 12 16 1003.3 1003.1 4.2
14/03:00pm 21.4 22.0 17.8 80 2.2 S 11 17 6 9 1003.6 1003.4 4.0
14/02:30pm 22.5 23.3 17.2 72 3.3 SSE 9 20 5 11 1003.4 1003.2 4.0
14/02:00pm 21.9 22.7 17.3 75 2.8 S 9 20 5 11 1003.9 1003.7 4.0
14/01:30pm 22.0 23.3 18.4 80 2.3 ESE 9 17 5 9 1004.1 1003.9 4.0
14/01:00pm 20.8 21.7 17.6 82 2.0 SE 9 19 5 10 1004.1 1003.9 4.0
14/12:30pm 20.6 21.6 18.7 89 1.2 NE 11 17 6 9 1003.9 1003.7 3.8
14/12:00pm 18.7 20.1 18.7 100 0.0 NE 9 15 5 8 1004.1 1003.9 3.8
14/11:30am 16.3 16.3 16.3 100 0.0 N 11 17 6 9 1004.1 1003.9 3.8
14/11:00am 15.7 15.1 15.7 100 0.0 SSW 13 20 7 11 1003.8 1003.6 2.8
14/10:43am 15.8 14.9 15.8 100 0.0 SSW 15 22 8 12 1003.7 1003.5 2.4
14/10:30am 15.9 16.5 15.9 100 0.0 WNW 7 15 4 8 1004.4 1004.2 2.0
14/10:29am 15.9 16.5 15.9 100 0.0 WNW 7 11 4 6 1004.5 1004.3 2.0
14/10:21am 16.0 16.7 16.0 100 0.0 WNW 7 9 4 5 1004.7 1004.5 1.2
14/10:02am 15.8 17.0 15.8 100 0.0 WNW 4 11 2 6 1004.3 1004.1 0.8
14/10:00am 15.9 17.1 15.9 100 0.0 WNW 4 11 2 6 1004.3 1004.1 0.4
14/09:30am 15.6 15.0 15.6 100 0.0 NW 13 15 7 8 1003.8 1003.6 0.0
14/09:00am 15.6 13.8 15.6 100 0.0 NW 19 24 10 13 1003.4 1003.2 12.6
14/08:31am 15.3 14.2 15.3 100 0.0 NNW 15 20 8 11 1003.3 1003.1 12.6
14/08:30am 15.4 14.7 15.4 100 0.0 NNW 13 20 7 11 1003.3 1003.1 12.6
14/08:00am 15.6 15.0 15.6 100 0.0 N 13 20 7 11 1003.8 1003.6 12.0
14/07:30am 15.9 15.8 15.9 100 0.0 NNW 11 17 6 9 1002.9 1002.7 11.0
14/07:03am 15.9 16.2 15.9 100 0.0 NNW 9 11 5 6 1001.8 1001.7 11.0
14/07:00am 15.9 16.2 15.9 100 0.0 NNW 9 11 5 6 1001.7 1001.6 11.0
14/06:30am 15.4 15.8 15.4 100 0.0 NW 7 11 4 6 1000.9 1000.7 11.0
14/06:24am 15.3 15.3 15.3 100 0.0 NW 9 13 5 7 1000.6 1000.4 11.0
14/06:00am 15.3 15.3 15.3 100 0.0 NW 9 13 5 7 1000.9 1000.7 11.0
14/05:59am 15.2 15.2 15.2 100 0.0 NW 9 13 5 7 1000.9 1000.7 11.0
14/05:30am 15.2 15.2 15.2 100 0.0 WNW 9 13 5 7 1000.8 1000.6 11.0
14/05:00am 15.0 16.2 15.0 100 0.0 NNW 2 6 1 3 1000.7 1000.5 11.0
14/04:30am 15.2 14.4 15.2 100 0.0 NW 13 20 7 11 1000.0 999.8 11.0
14/04:00am 15.6 15.4 15.6 100 0.0 NNW 11 13 6 7 999.7 999.5 11.0
14/03:30am 15.7 16.4 15.7 100 0.0 NNW 6 9 3 5 999.7 999.5 11.0
14/03:00am 16.1 17.8 16.1 100 0.0 NNW 2 7 1 4 999.6 999.4 11.0
14/02:50am 16.7 18.6 16.7 100 0.0 NNW 2 7 1 4 999.5 999.3 11.0
14/02:32am 17.1 18.4 17.1 100 0.0 NNW 6 7 3 4 999.5 999.3 11.0
14/02:30am 17.1 18.4 17.1 100 0.0 NNW 6 7 3 4 999.5 999.3 11.0
14/02:00am 16.9 18.5 16.9 100 0.0 NNW 4 7 2 4 999.2 999.0 11.0
14/01:30am 16.7 18.6 16.7 100 0.0 NNW 2 7 1 4 998.6 998.4 11.0
14/01:00am 17.1 18.2 17.1 100 0.0 NNW 7 11 4 6 998.3 998.1 11.0
14/12:54am 17.1 17.8 17.1 100 0.0 NNW 9 11 5 6 998.4 998.2 11.0
14/12:30am 16.9 17.9 16.9 100 0.0 NW 7 9 4 5 998.1 997.9 11.0
14/12:00am 16.9 17.5 16.9 100 0.0 NNW 9 13 5 7 997.9 997.7 11.0
 
Date/Time
EDT
Temp
°C
App
Temp
°C
Dew
Point
°C
Rel
Hum
%
Delta-T
°C
Wind Press
QNH
hPa
Press
MSL
hPa
Rain since
9am
mm
Dir  Spd
km/h
Gust
km/h
Spd
kts
Gust
kts
13/11:30pm 17.0 18.3 17.0 100 0.0 WSW 6 9 3 5 997.8 997.6 11.0
13/11:00pm 16.9 17.2 16.9 100 0.0 WSW 11 13 6 7 997.4 997.2 11.0
13/10:30pm 17.0 16.2 17.0 100 0.0 WSW 17 20 9 11 997.0 996.8 11.0
13/10:00pm 17.1 16.7 17.1 100 0.0 WSW 15 20 8 11 997.4 997.2 11.0
13/09:30pm 17.3 16.6 17.3 100 0.0 WSW 17 20 9 11 997.0 996.8 11.0
13/09:00pm 17.3 16.0 17.3 100 0.0 SW 20 28 11 15 996.5 996.3 11.0
13/08:56pm 17.3 15.6 17.3 100 0.0 SW 22 28 12 15 996.5 996.3 11.0
13/08:30pm 18.2 17.4 18.0 99 0.1 SSW 19 26 10 14 996.4 996.2 11.0
13/08:00pm 18.9 18.0 16.9 88 1.2 S 17 20 9 11 995.9 995.7 11.0
13/07:30pm 18.4 17.2 17.1 92 0.8 SW 19 22 10 12 995.7 995.5 11.0
13/07:00pm 18.6 17.5 16.4 87 1.3 S 17 22 9 12 995.8 995.6 11.0
13/06:30pm 19.4 17.8 15.1 76 2.5 SE 17 20 9 11 995.2 995.0 11.0
13/06:00pm 19.4 18.1 14.9 75 2.7 NW 15 26 8 14 995.1 994.9 11.0
13/05:51pm 19.5 16.0 15.4 77 2.4 SSE 28 57 15 31 995.2 995.0 11.0
13/05:44pm 19.3 14.7 15.2 77 2.4 SE 33 57 18 31 993.2 993.0 11.0
13/05:43pm 19.3 14.9 15.2 77 2.4 SE 32 46 17 25 993.4 993.2 11.0
13/05:30pm 19.4 15.8 15.3 77 2.4 ESE 28 37 15 20 995.4 995.2 11.0
13/05:00pm 19.8 18.5 15.9 78 2.3 ENE 17 22 9 12 996.4 996.2 11.0
13/04:43pm 19.6 16.7 16.1 80 2.1 ESE 26 41 14 22 995.4 995.2 11.0
13/04:30pm 19.7 20.4 15.6 77 2.4 SW 6 13 3 7 997.4 997.2 11.0
13/04:00pm 19.7 20.1 15.4 76 2.6 ESE 7 15 4 8 998.3 998.1 11.0
13/03:30pm 19.5 18.5 15.6 78 2.3 ESE 15 24 8 13 998.2 998.0 11.0
13/03:00pm 19.4 16.9 17.2 87 1.4 SE 26 35 14 19 997.1 996.9 11.0
13/02:55pm 19.0 16.5 17.0 88 1.2 SSE 26 35 14 19 997.0 996.8 11.0

Latest Capital City Observations: Canberra | Sydney | Melbourne | Brisbane | Adelaide | Perth | Hobart | Darwin

Other Formats:

Comma delimited format used in spreadsheet applications
http://www.bom.gov.au/fwo/IDV60901/IDV60901.95866.axf

JavaScript Object Notation format (JSON) in row-major order
http://www.bom.gov.au/fwo/IDV60901/IDV60901.95866.json